Terminal Aerodrome Forecast
Issued by NWS

Home | Current Version | Previous Version | Graphics & Text | Print | Product List | Glossary On
Versions: 1 2 3 4 5 6 7 8 9 10 11 12 13 14 15 16 17 18 19 20 21 22 23 24 25 26 27 28 29 30 31 32 33 34
763
FTUS43 KLOT 210911 AAB
TAFDPA
TAF AMD
KDPA 210911Z 2109/2206 05007KT 6SM -SHRA FEW005 OVC007
     FM211100 07009KT 5SM -SHRA BR VCTS FEW005CB OVC008
     FM211500 10013KT 6SM -SHRA BR BKN008 OVC015
     FM212100 10012KT 6SM BR VCSH SCT010 OVC015
     FM220200 09010KT P6SM BKN008=

USA.gov is the U.S. government's official web portal to all federal, state and local government web resources and services.